sensor_id;sensor_type;location;lat;lon;timestamp;P1;durP1;ratioP1;P2;durP2;ratioP2
3249;SDS011;1637;42.020;23.992;2023-08-06T00:00:39;6.20;;;5.07;;
3249;SDS011;1637;42.020;23.992;2023-08-06T00:03:05;7.00;;;3.63;;
3249;SDS011;1637;42.020;23.992;2023-08-06T00:05:32;4.17;;;3.87;;
3249;SDS011;1637;42.020;23.992;2023-08-06T00:07:59;8.90;;;3.60;;
3249;SDS011;1637;42.020;23.992;2023-08-06T00:10:26;6.80;;;4.30;;
3249;SDS011;1637;42.020;23.992;2023-08-06T00:12:53;6.70;;;4.53;;
3249;SDS011;1637;42.020;23.992;2023-08-06T00:15:21;8.33;;;4.70;;
3249;SDS011;1637;42.020;23.992;2023-08-06T00:17:48;7.00;;;4.93;;
3249;SDS011;1637;42.020;23.992;2023-08-06T00:20:15;4.60;;;4.20;;
3249;SDS011;1637;42.020;23.992;2023-08-06T00:22:42;6.17;;;4.77;;
3249;SDS011;1637;42.020;23.992;2023-08-06T00:25:09;13.00;;;5.27;;
3249;SDS011;1637;42.020;23.992;2023-08-06T00:27:35;13.30;;;5.47;;
3249;SDS011;1637;42.020;23.992;2023-08-06T00:30:03;7.70;;;5.47;;
3249;SDS011;1637;42.020;23.992;2023-08-06T00:32:32;7.50;;;4.60;;
3249;SDS011;1637;42.020;23.992;2023-08-06T00:34:59;7.67;;;5.20;;
3249;SDS011;1637;42.020;23.992;2023-08-06T00:37:26;5.77;;;5.17;;
3249;SDS011;1637;42.020;23.992;2023-08-06T00:39:52;7.87;;;5.40;;
3249;SDS011;1637;42.020;23.992;2023-08-06T00:42:19;10.63;;;5.73;;
3249;SDS011;1637;42.020;23.992;2023-08-06T00:44:47;10.13;;;6.70;;
3249;SDS011;1637;42.020;23.992;2023-08-06T00:47:14;7.53;;;6.37;;
3249;SDS011;1637;42.020;23.992;2023-08-06T00:49:43;10.33;;;6.53;;
3249;SDS011;1637;42.020;23.992;2023-08-06T00:52:10;10.03;;;5.63;;
3249;SDS011;1637;42.020;23.992;2023-08-06T00:54:38;9.10;;;6.93;;
3249;SDS011;1637;42.020;23.992;2023-08-06T00:57:05;6.80;;;6.10;;
3249;SDS011;1637;42.020;23.992;2023-08-06T00:59:34;8.03;;;5.77;;
3249;SDS011;1637;42.020;23.992;2023-08-06T01:02:00;15.13;;;6.50;;
3249;SDS011;1637;42.020;23.992;2023-08-06T01:04:27;14.60;;;6.27;;
3249;SDS011;1637;42.020;23.992;2023-08-06T01:07:01;10.73;;;6.27;;
3249;SDS011;1637;42.020;23.992;2023-08-06T01:09:35;12.57;;;7.17;;
3249;SDS011;1637;42.020;23.992;2023-08-06T01:12:13;10.33;;;7.47;;
3249;SDS011;1637;42.020;23.992;2023-08-06T01:14:51;11.20;;;7.67;;
3249;SDS011;1637;42.020;23.992;2023-08-06T01:17:24;12.73;;;7.20;;
3249;SDS011;1637;42.020;23.992;2023-08-06T01:19:51;10.63;;;7.80;;
3249;SDS011;1637;42.020;23.992;2023-08-06T01:22:20;13.33;;;7.30;;
3249;SDS011;1637;42.020;23.992;2023-08-06T01:24:47;10.00;;;7.37;;
3249;SDS011;1637;42.020;23.992;2023-08-06T01:27:17;12.27;;;7.00;;
3249;SDS011;1637;42.020;23.992;2023-08-06T01:29:54;9.90;;;7.03;;
3249;SDS011;1637;42.020;23.992;2023-08-06T01:32:26;10.37;;;8.57;;
3249;SDS011;1637;42.020;23.992;2023-08-06T01:34:55;9.50;;;8.30;;
3249;SDS011;1637;42.020;23.992;2023-08-06T01:37:27;10.50;;;8.80;;
3249;SDS011;1637;42.020;23.992;2023-08-06T01:39:55;9.10;;;7.50;;
3249;SDS011;1637;42.020;23.992;2023-08-06T01:42:21;14.73;;;7.43;;
3249;SDS011;1637;42.020;23.992;2023-08-06T01:44:48;15.80;;;8.10;;
3249;SDS011;1637;42.020;23.992;2023-08-06T01:47:15;11.43;;;8.57;;
3249;SDS011;1637;42.020;23.992;2023-08-06T01:49:42;8.30;;;7.30;;
3249;SDS011;1637;42.020;23.992;2023-08-06T01:52:09;15.93;;;9.63;;
3249;SDS011;1637;42.020;23.992;2023-08-06T01:54:37;14.07;;;9.17;;
3249;SDS011;1637;42.020;23.992;2023-08-06T01:57:04;12.10;;;8.33;;
3249;SDS011;1637;42.020;23.992;2023-08-06T01:59:31;11.03;;;9.23;;
3249;SDS011;1637;42.020;23.992;2023-08-06T02:01:58;13.80;;;8.90;;
3249;SDS011;1637;42.020;23.992;2023-08-06T02:04:25;11.53;;;8.90;;
3249;SDS011;1637;42.020;23.992;2023-08-06T02:06:52;12.13;;;9.53;;
3249;SDS011;1637;42.020;23.992;2023-08-06T02:09:19;18.27;;;9.77;;
3249;SDS011;1637;42.020;23.992;2023-08-06T02:11:47;13.70;;;8.97;;
3249;SDS011;1637;42.020;23.992;2023-08-06T02:14:14;12.00;;;8.90;;
3249;SDS011;1637;42.020;23.992;2023-08-06T02:16:41;10.83;;;9.60;;
3249;SDS011;1637;42.020;23.992;2023-08-06T02:19:07;30.07;;;9.53;;
3249;SDS011;1637;42.020;23.992;2023-08-06T02:21:34;14.63;;;10.20;;
3249;SDS011;1637;42.020;23.992;2023-08-06T02:24:01;12.60;;;9.30;;
3249;SDS011;1637;42.020;23.992;2023-08-06T02:26:28;11.30;;;8.63;;
3249;SDS011;1637;42.020;23.992;2023-08-06T02:28:56;10.93;;;9.07;;
3249;SDS011;1637;42.020;23.992;2023-08-06T02:31:23;11.77;;;9.70;;
3249;SDS011;1637;42.020;23.992;2023-08-06T02:33:50;10.30;;;8.80;;
3249;SDS011;1637;42.020;23.992;2023-08-06T02:36:19;12.77;;;9.67;;
3249;SDS011;1637;42.020;23.992;2023-08-06T02:38:45;17.30;;;9.40;;
3249;SDS011;1637;42.020;23.992;2023-08-06T02:41:13;11.73;;;8.73;;
3249;SDS011;1637;42.020;23.992;2023-08-06T02:43:40;16.73;;;9.90;;
3249;SDS011;1637;42.020;23.992;2023-08-06T02:46:08;10.40;;;8.97;;
3249;SDS011;1637;42.020;23.992;2023-08-06T02:48:35;13.43;;;10.73;;
3249;SDS011;1637;42.020;23.992;2023-08-06T02:51:01;12.80;;;9.67;;
3249;SDS011;1637;42.020;23.992;2023-08-06T02:53:28;12.73;;;10.60;;
3249;SDS011;1637;42.020;23.992;2023-08-06T02:55:56;17.67;;;10.80;;
3249;SDS011;1637;42.020;23.992;2023-08-06T02:58:24;15.27;;;10.87;;
3249;SDS011;1637;42.020;23.992;2023-08-06T03:01:00;14.43;;;10.30;;
3249;SDS011;1637;42.020;23.992;2023-08-06T03:03:29;15.43;;;9.30;;
3249;SDS011;1637;42.020;23.992;2023-08-06T03:05:56;13.47;;;10.27;;
3249;SDS011;1637;42.020;23.992;2023-08-06T03:08:23;14.47;;;10.20;;
3249;SDS011;1637;42.020;23.992;2023-08-06T03:10:50;20.17;;;11.70;;
3249;SDS011;1637;42.020;23.992;2023-08-06T03:13:17;14.53;;;10.70;;
3249;SDS011;1637;42.020;23.992;2023-08-06T03:15:51;11.97;;;10.30;;
3249;SDS011;1637;42.020;23.992;2023-08-06T03:18:18;15.43;;;10.73;;
3249;SDS011;1637;42.020;23.992;2023-08-06T03:20:46;12.60;;;11.30;;
3249;SDS011;1637;42.020;23.992;2023-08-06T03:23:13;16.23;;;12.00;;
3249;SDS011;1637;42.020;23.992;2023-08-06T03:25:40;17.57;;;11.97;;
3249;SDS011;1637;42.020;23.992;2023-08-06T03:28:07;15.07;;;10.63;;
3249;SDS011;1637;42.020;23.992;2023-08-06T03:30:34;24.57;;;12.40;;
3249;SDS011;1637;42.020;23.992;2023-08-06T03:33:01;18.17;;;11.83;;
3249;SDS011;1637;42.020;23.992;2023-08-06T03:35:28;18.70;;;11.20;;
3249;SDS011;1637;42.020;23.992;2023-08-06T03:37:56;13.57;;;11.70;;
3249;SDS011;1637;42.020;23.992;2023-08-06T03:40:23;18.60;;;10.73;;
3249;SDS011;1637;42.020;23.992;2023-08-06T03:42:49;13.57;;;10.10;;
3249;SDS011;1637;42.020;23.992;2023-08-06T03:45:16;13.57;;;10.00;;
3249;SDS011;1637;42.020;23.992;2023-08-06T03:47:43;13.57;;;11.27;;
3249;SDS011;1637;42.020;23.992;2023-08-06T03:50:10;16.43;;;9.80;;
3249;SDS011;1637;42.020;23.992;2023-08-06T03:52:37;13.83;;;10.03;;
3249;SDS011;1637;42.020;23.992;2023-08-06T03:55:05;14.27;;;11.57;;
3249;SDS011;1637;42.020;23.992;2023-08-06T03:57:32;12.83;;;9.47;;
3249;SDS011;1637;42.020;23.992;2023-08-06T03:59:59;14.97;;;10.17;;
3249;SDS011;1637;42.020;23.992;2023-08-06T04:02:26;13.17;;;10.37;;
3249;SDS011;1637;42.020;23.992;2023-08-06T04:04:53;16.70;;;10.70;;
3249;SDS011;1637;42.020;23.992;2023-08-06T04:07:19;12.10;;;10.90;;
3249;SDS011;1637;42.020;23.992;2023-08-06T04:09:53;11.70;;;9.57;;
3249;SDS011;1637;42.020;23.992;2023-08-06T04:12:22;11.93;;;10.20;;
3249;SDS011;1637;42.020;23.992;2023-08-06T04:14:49;16.83;;;11.40;;
3249;SDS011;1637;42.020;23.992;2023-08-06T04:17:16;12.37;;;9.93;;
3249;SDS011;1637;42.020;23.992;2023-08-06T04:19:45;14.60;;;10.87;;
3249;SDS011;1637;42.020;23.992;2023-08-06T04:22:13;11.07;;;9.53;;
3249;SDS011;1637;42.020;23.992;2023-08-06T04:24:41;11.20;;;9.70;;
3249;SDS011;1637;42.020;23.992;2023-08-06T04:27:07;13.40;;;10.47;;
3249;SDS011;1637;42.020;23.992;2023-08-06T04:29:36;13.40;;;10.10;;
3249;SDS011;1637;42.020;23.992;2023-08-06T04:32:05;12.20;;;10.63;;
3249;SDS011;1637;42.020;23.992;2023-08-06T04:34:32;12.03;;;10.73;;
3249;SDS011;1637;42.020;23.992;2023-08-06T04:36:59;13.23;;;10.60;;
3249;SDS011;1637;42.020;23.992;2023-08-06T04:39:26;12.33;;;11.03;;
3249;SDS011;1637;42.020;23.992;2023-08-06T04:41:54;14.00;;;12.03;;
3249;SDS011;1637;42.020;23.992;2023-08-06T04:44:21;16.30;;;11.00;;
3249;SDS011;1637;42.020;23.992;2023-08-06T04:46:49;15.10;;;11.50;;
3249;SDS011;1637;42.020;23.992;2023-08-06T04:49:16;13.50;;;11.50;;
3249;SDS011;1637;42.020;23.992;2023-08-06T04:51:43;20.23;;;12.07;;
3249;SDS011;1637;42.020;23.992;2023-08-06T04:54:10;14.30;;;11.80;;
3249;SDS011;1637;42.020;23.992;2023-08-06T04:56:37;15.17;;;11.97;;
3249;SDS011;1637;42.020;23.992;2023-08-06T04:59:04;16.33;;;10.20;;
3249;SDS011;1637;42.020;23.992;2023-08-06T05:01:31;16.27;;;12.27;;
3249;SDS011;1637;42.020;23.992;2023-08-06T05:03:59;19.80;;;12.90;;
3249;SDS011;1637;42.020;23.992;2023-08-06T05:06:26;14.43;;;11.87;;
3249;SDS011;1637;42.020;23.992;2023-08-06T05:08:53;17.23;;;12.13;;
3249;SDS011;1637;42.020;23.992;2023-08-06T05:11:20;14.20;;;11.60;;
3249;SDS011;1637;42.020;23.992;2023-08-06T05:13:46;16.97;;;13.33;;
3249;SDS011;1637;42.020;23.992;2023-08-06T05:16:13;23.23;;;13.23;;
3249;SDS011;1637;42.020;23.992;2023-08-06T05:18:40;16.27;;;12.57;;
3249;SDS011;1637;42.020;23.992;2023-08-06T05:21:08;17.60;;;14.20;;
3249;SDS011;1637;42.020;23.992;2023-08-06T05:23:35;18.47;;;13.07;;
3249;SDS011;1637;42.020;23.992;2023-08-06T05:26:02;14.30;;;11.70;;
3249;SDS011;1637;42.020;23.992;2023-08-06T05:28:29;24.07;;;13.17;;
3249;SDS011;1637;42.020;23.992;2023-08-06T05:30:55;16.73;;;11.70;;
3249;SDS011;1637;42.020;23.992;2023-08-06T05:33:22;15.40;;;10.97;;
3249;SDS011;1637;42.020;23.992;2023-08-06T05:35:49;14.50;;;10.67;;
3249;SDS011;1637;42.020;23.992;2023-08-06T05:38:17;15.13;;;11.60;;
3249;SDS011;1637;42.020;23.992;2023-08-06T05:40:44;16.17;;;10.80;;
3249;SDS011;1637;42.020;23.992;2023-08-06T05:43:11;13.87;;;10.00;;
3249;SDS011;1637;42.020;23.992;2023-08-06T05:45:38;13.17;;;10.07;;
3249;SDS011;1637;42.020;23.992;2023-08-06T05:48:04;17.60;;;14.43;;
3249;SDS011;1637;42.020;23.992;2023-08-06T05:50:31;13.13;;;11.73;;
3249;SDS011;1637;42.020;23.992;2023-08-06T05:52:58;12.20;;;9.97;;
3249;SDS011;1637;42.020;23.992;2023-08-06T05:55:26;15.77;;;9.20;;
3249;SDS011;1637;42.020;23.992;2023-08-06T05:57:53;12.67;;;9.97;;
3249;SDS011;1637;42.020;23.992;2023-08-06T06:00:20;15.23;;;9.00;;
3249;SDS011;1637;42.020;23.992;2023-08-06T06:02:47;18.50;;;10.83;;
3249;SDS011;1637;42.020;23.992;2023-08-06T06:05:14;18.43;;;10.60;;
3249;SDS011;1637;42.020;23.992;2023-08-06T06:07:41;12.93;;;10.87;;
3249;SDS011;1637;42.020;23.992;2023-08-06T06:10:08;12.67;;;10.67;;
3249;SDS011;1637;42.020;23.992;2023-08-06T06:12:37;15.23;;;10.70;;
3249;SDS011;1637;42.020;23.992;2023-08-06T06:15:05;16.13;;;9.40;;
3249;SDS011;1637;42.020;23.992;2023-08-06T06:17:32;11.70;;;8.80;;
3249;SDS011;1637;42.020;23.992;2023-08-06T06:19:59;10.30;;;9.10;;
3249;SDS011;1637;42.020;23.992;2023-08-06T06:22:26;11.67;;;9.57;;
3249;SDS011;1637;42.020;23.992;2023-08-06T06:24:53;12.70;;;9.30;;
3249;SDS011;1637;42.020;23.992;2023-08-06T06:27:20;15.47;;;9.83;;
3249;SDS011;1637;42.020;23.992;2023-08-06T06:29:48;14.70;;;10.50;;
3249;SDS011;1637;42.020;23.992;2023-08-06T06:32:15;11.47;;;10.07;;
3249;SDS011;1637;42.020;23.992;2023-08-06T06:34:42;16.03;;;9.30;;
3249;SDS011;1637;42.020;23.992;2023-08-06T06:37:09;11.90;;;9.03;;
3249;SDS011;1637;42.020;23.992;2023-08-06T06:39:36;12.17;;;9.00;;
3249;SDS011;1637;42.020;23.992;2023-08-06T06:42:03;11.40;;;8.40;;
3249;SDS011;1637;42.020;23.992;2023-08-06T06:44:30;12.77;;;9.60;;
3249;SDS011;1637;42.020;23.992;2023-08-06T06:46:58;9.63;;;8.23;;
3249;SDS011;1637;42.020;23.992;2023-08-06T06:49:25;14.03;;;8.23;;
3249;SDS011;1637;42.020;23.992;2023-08-06T06:51:52;12.50;;;8.20;;
3249;SDS011;1637;42.020;23.992;2023-08-06T06:54:19;10.77;;;8.10;;
3249;SDS011;1637;42.020;23.992;2023-08-06T06:56:45;10.97;;;8.20;;
3249;SDS011;1637;42.020;23.992;2023-08-06T06:59:12;12.27;;;8.80;;
3249;SDS011;1637;42.020;23.992;2023-08-06T07:01:39;9.67;;;8.23;;
3249;SDS011;1637;42.020;23.992;2023-08-06T07:04:07;9.10;;;8.13;;
3249;SDS011;1637;42.020;23.992;2023-08-06T07:06:34;11.93;;;9.73;;
3249;SDS011;1637;42.020;23.992;2023-08-06T07:09:01;14.93;;;8.43;;
3249;SDS011;1637;42.020;23.992;2023-08-06T07:11:28;9.90;;;8.90;;
3249;SDS011;1637;42.020;23.992;2023-08-06T07:13:56;12.70;;;9.23;;
3249;SDS011;1637;42.020;23.992;2023-08-06T07:16:23;15.20;;;8.30;;
3249;SDS011;1637;42.020;23.992;2023-08-06T07:18:51;18.37;;;13.20;;
3249;SDS011;1637;42.020;23.992;2023-08-06T07:21:20;12.40;;;9.07;;
3249;SDS011;1637;42.020;23.992;2023-08-06T07:23:47;12.87;;;7.90;;
3249;SDS011;1637;42.020;23.992;2023-08-06T07:26:14;14.33;;;8.70;;
3249;SDS011;1637;42.020;23.992;2023-08-06T07:28:41;10.07;;;8.60;;
3249;SDS011;1637;42.020;23.992;2023-08-06T07:31:08;11.70;;;7.30;;
3249;SDS011;1637;42.020;23.992;2023-08-06T07:33:35;7.23;;;6.53;;
3249;SDS011;1637;42.020;23.992;2023-08-06T07:36:07;8.20;;;6.97;;
3249;SDS011;1637;42.020;23.992;2023-08-06T07:38:36;8.10;;;7.30;;
3249;SDS011;1637;42.020;23.992;2023-08-06T07:41:03;7.33;;;6.60;;
3249;SDS011;1637;42.020;23.992;2023-08-06T07:43:30;7.63;;;6.73;;
3249;SDS011;1637;42.020;23.992;2023-08-06T07:45:57;9.63;;;6.73;;
3249;SDS011;1637;42.020;23.992;2023-08-06T07:48:25;8.47;;;7.23;;
3249;SDS011;1637;42.020;23.992;2023-08-06T07:50:51;6.40;;;5.80;;
3249;SDS011;1637;42.020;23.992;2023-08-06T07:53:19;9.03;;;7.30;;
3249;SDS011;1637;42.020;23.992;2023-08-06T07:55:49;8.10;;;7.30;;
3249;SDS011;1637;42.020;23.992;2023-08-06T07:58:17;11.03;;;7.83;;
3249;SDS011;1637;42.020;23.992;2023-08-06T08:00:44;10.20;;;7.70;;
3249;SDS011;1637;42.020;23.992;2023-08-06T08:03:11;7.83;;;6.90;;
3249;SDS011;1637;42.020;23.992;2023-08-06T08:05:38;12.50;;;6.40;;
3249;SDS011;1637;42.020;23.992;2023-08-06T08:08:05;7.90;;;7.10;;
3249;SDS011;1637;42.020;23.992;2023-08-06T08:10:32;9.73;;;6.30;;
3249;SDS011;1637;42.020;23.992;2023-08-06T08:13:01;8.03;;;6.80;;
3249;SDS011;1637;42.020;23.992;2023-08-06T08:15:29;6.17;;;5.57;;
3249;SDS011;1637;42.020;23.992;2023-08-06T08:17:57;5.33;;;4.93;;
3249;SDS011;1637;42.020;23.992;2023-08-06T08:20:24;6.20;;;5.60;;
3249;SDS011;1637;42.020;23.992;2023-08-06T08:22:52;7.27;;;5.40;;
3249;SDS011;1637;42.020;23.992;2023-08-06T08:25:19;7.93;;;5.80;;
3249;SDS011;1637;42.020;23.992;2023-08-06T08:27:46;8.40;;;5.50;;
3249;SDS011;1637;42.020;23.992;2023-08-06T08:30:14;10.00;;;5.90;;
3249;SDS011;1637;42.020;23.992;2023-08-06T08:32:41;5.33;;;4.83;;
3249;SDS011;1637;42.020;23.992;2023-08-06T08:35:08;5.30;;;4.80;;
3249;SDS011;1637;42.020;23.992;2023-08-06T08:37:37;5.30;;;4.23;;
3249;SDS011;1637;42.020;23.992;2023-08-06T08:40:04;5.37;;;4.87;;
3249;SDS011;1637;42.020;23.992;2023-08-06T08:42:32;5.17;;;4.77;;
3249;SDS011;1637;42.020;23.992;2023-08-06T08:44:59;5.13;;;4.63;;
3249;SDS011;1637;42.020;23.992;2023-08-06T08:47:27;13.43;;;5.30;;
3249;SDS011;1637;42.020;23.992;2023-08-06T08:49:54;5.17;;;4.67;;
3249;SDS011;1637;42.020;23.992;2023-08-06T08:52:22;4.70;;;4.30;;
3249;SDS011;1637;42.020;23.992;2023-08-06T08:54:50;5.33;;;4.83;;
3249;SDS011;1637;42.020;23.992;2023-08-06T08:57:18;8.10;;;4.43;;
3249;SDS011;1637;42.020;23.992;2023-08-06T08:59:45;4.93;;;4.50;;
3249;SDS011;1637;42.020;23.992;2023-08-06T09:02:12;5.13;;;4.30;;
3249;SDS011;1637;42.020;23.992;2023-08-06T09:04:42;13.73;;;4.33;;
3249;SDS011;1637;42.020;23.992;2023-08-06T09:07:11;5.17;;;4.57;;
3249;SDS011;1637;42.020;23.992;2023-08-06T09:09:41;5.60;;;5.10;;
3249;SDS011;1637;42.020;23.992;2023-08-06T09:12:12;5.17;;;4.67;;
3249;SDS011;1637;42.020;23.992;2023-08-06T09:14:40;6.30;;;4.50;;
3249;SDS011;1637;42.020;23.992;2023-08-06T09:17:08;4.30;;;3.90;;
3249;SDS011;1637;42.020;23.992;2023-08-06T09:19:35;5.60;;;4.30;;
3249;SDS011;1637;42.020;23.992;2023-08-06T09:22:04;4.63;;;4.20;;
3249;SDS011;1637;42.020;23.992;2023-08-06T09:24:38;4.37;;;3.97;;
3249;SDS011;1637;42.020;23.992;2023-08-06T09:27:08;4.47;;;4.07;;
3249;SDS011;1637;42.020;23.992;2023-08-06T09:29:39;6.53;;;4.13;;
3249;SDS011;1637;42.020;23.992;2023-08-06T09:32:07;3.90;;;3.50;;
3249;SDS011;1637;42.020;23.992;2023-08-06T09:34:33;4.60;;;4.20;;
3249;SDS011;1637;42.020;23.992;2023-08-06T09:37:00;4.10;;;3.70;;
3249;SDS011;1637;42.020;23.992;2023-08-06T09:39:29;10.38;;;4.25;;
3249;SDS011;1637;42.020;23.992;2023-08-06T09:41:57;7.40;;;3.83;;
3249;SDS011;1637;42.020;23.992;2023-08-06T09:44:25;5.20;;;3.60;;
3249;SDS011;1637;42.020;23.992;2023-08-06T09:46:53;4.22;;;3.85;;
3249;SDS011;1637;42.020;23.992;2023-08-06T09:49:24;4.00;;;3.28;;
3249;SDS011;1637;42.020;23.992;2023-08-06T09:51:53;4.30;;;3.90;;
3249;SDS011;1637;42.020;23.992;2023-08-06T09:54:22;4.63;;;4.18;;
3249;SDS011;1637;42.020;23.992;2023-08-06T09:56:50;4.15;;;3.63;;
3249;SDS011;1637;42.020;23.992;2023-08-06T09:59:17;3.75;;;3.35;;
3249;SDS011;1637;42.020;23.992;2023-08-06T10:01:45;4.53;;;2.10;;
3249;SDS011;1637;42.020;23.992;2023-08-06T10:04:13;5.00;;;1.80;;
3249;SDS011;1637;42.020;23.992;2023-08-06T10:06:43;2.80;;;1.52;;
3249;SDS011;1637;42.020;23.992;2023-08-06T10:09:13;1.50;;;1.30;;
3249;SDS011;1637;42.020;23.992;2023-08-06T10:11:40;4.18;;;1.50;;
3249;SDS011;1637;42.020;23.992;2023-08-06T10:14:15;2.85;;;1.55;;
3249;SDS011;1637;42.020;23.992;2023-08-06T10:16:46;1.73;;;1.33;;
3249;SDS011;1637;42.020;23.992;2023-08-06T10:19:13;5.03;;;1.15;;
3249;SDS011;1637;42.020;23.992;2023-08-06T10:21:57;6.28;;;1.83;;
3249;SDS011;1637;42.020;23.992;2023-08-06T10:24:45;6.78;;;1.65;;
3249;SDS011;1637;42.020;23.992;2023-08-06T10:27:12;1.30;;;1.20;;
3249;SDS011;1637;42.020;23.992;2023-08-06T10:29:43;2.17;;;1.30;;
3249;SDS011;1637;42.020;23.992;2023-08-06T10:32:10;3.15;;;1.58;;
3249;SDS011;1637;42.020;23.992;2023-08-06T10:34:56;15.82;;;2.53;;
3249;SDS011;1637;42.020;23.992;2023-08-06T10:37:24;1.30;;;1.20;;
3249;SDS011;1637;42.020;23.992;2023-08-06T10:40:00;1.88;;;1.20;;
3249;SDS011;1637;42.020;23.992;2023-08-06T10:42:28;1.90;;;1.33;;
3249;SDS011;1637;42.020;23.992;2023-08-06T10:45:13;1.75;;;1.63;;
3249;SDS011;1637;42.020;23.992;2023-08-06T10:47:41;1.30;;;1.20;;
3249;SDS011;1637;42.020;23.992;2023-08-06T10:50:10;1.20;;;1.10;;
3249;SDS011;1637;42.020;23.992;2023-08-06T10:52:38;1.30;;;1.20;;
3249;SDS011;1637;42.020;23.992;2023-08-06T10:55:05;1.92;;;1.10;;
3249;SDS011;1637;42.020;23.992;2023-08-06T10:57:34;1.40;;;1.30;;
3249;SDS011;1637;42.020;23.992;2023-08-06T11:00:01;1.73;;;1.23;;
3249;SDS011;1637;42.020;23.992;2023-08-06T11:02:29;1.50;;;1.40;;
3249;SDS011;1637;42.020;23.992;2023-08-06T11:05:04;3.20;;;1.77;;
3249;SDS011;1637;42.020;23.992;2023-08-06T11:07:31;6.38;;;1.42;;
3249;SDS011;1637;42.020;23.992;2023-08-06T11:10:00;3.55;;;1.30;;
3249;SDS011;1637;42.020;23.992;2023-08-06T11:12:28;1.33;;;1.23;;
3249;SDS011;1637;42.020;23.992;2023-08-06T11:14:55;6.68;;;1.30;;
3249;SDS011;1637;42.020;23.992;2023-08-06T11:17:22;1.55;;;1.33;;
3249;SDS011;1637;42.020;23.992;2023-08-06T11:19:50;2.90;;;1.40;;
3249;SDS011;1637;42.020;23.992;2023-08-06T11:22:17;4.32;;;1.33;;
3249;SDS011;1637;42.020;23.992;2023-08-06T11:24:44;1.85;;;1.60;;
3249;SDS011;1637;42.020;23.992;2023-08-06T11:27:12;1.67;;;1.17;;
3249;SDS011;1637;42.020;23.992;2023-08-06T11:29:40;2.40;;;1.40;;
3249;SDS011;1637;42.020;23.992;2023-08-06T11:32:07;3.92;;;1.42;;
3249;SDS011;1637;42.020;23.992;2023-08-06T11:34:34;5.93;;;1.40;;
3249;SDS011;1637;42.020;23.992;2023-08-06T11:37:03;4.30;;;1.58;;
3249;SDS011;1637;42.020;23.992;2023-08-06T11:39:31;1.55;;;1.30;;
3249;SDS011;1637;42.020;23.992;2023-08-06T11:41:58;2.65;;;1.50;;
3249;SDS011;1637;42.020;23.992;2023-08-06T11:44:29;2.15;;;1.50;;
3249;SDS011;1637;42.020;23.992;2023-08-06T11:46:57;5.97;;;1.40;;
3249;SDS011;1637;42.020;23.992;2023-08-06T11:49:39;7.38;;;1.33;;
3249;SDS011;1637;42.020;23.992;2023-08-06T11:52:13;1.55;;;1.30;;
3249;SDS011;1637;42.020;23.992;2023-08-06T11:54:43;3.15;;;1.33;;
3249;SDS011;1637;42.020;23.992;2023-08-06T11:57:10;1.50;;;1.40;;
3249;SDS011;1637;42.020;23.992;2023-08-06T11:59:37;3.83;;;1.27;;
3249;SDS011;1637;42.020;23.992;2023-08-06T12:02:07;1.20;;;1.10;;
3249;SDS011;1637;42.020;23.992;2023-08-06T12:07:27;2.00;;;1.45;;
3249;SDS011;1637;42.020;23.992;2023-08-06T12:09:57;1.92;;;1.40;;
3249;SDS011;1637;42.020;23.992;2023-08-06T12:12:24;4.80;;;1.57;;
3249;SDS011;1637;42.020;23.992;2023-08-06T12:14:51;2.25;;;1.30;;
3249;SDS011;1637;42.020;23.992;2023-08-06T12:17:17;3.08;;;1.23;;
3249;SDS011;1637;42.020;23.992;2023-08-06T12:19:44;3.80;;;1.70;;
3249;SDS011;1637;42.020;23.992;2023-08-06T12:22:12;4.00;;;2.00;;
3249;SDS011;1637;42.020;23.992;2023-08-06T12:24:41;1.50;;;1.40;;
3249;SDS011;1637;42.020;23.992;2023-08-06T12:27:08;2.40;;;1.50;;
3249;SDS011;1637;42.020;23.992;2023-08-06T12:29:36;2.00;;;1.60;;
3249;SDS011;1637;42.020;23.992;2023-08-06T12:32:04;3.53;;;1.70;;
3249;SDS011;1637;42.020;23.992;2023-08-06T12:34:31;1.73;;;1.60;;
3249;SDS011;1637;42.020;23.992;2023-08-06T12:36:58;2.47;;;1.38;;
3249;SDS011;1637;42.020;23.992;2023-08-06T12:39:25;2.20;;;1.60;;
3249;SDS011;1637;42.020;23.992;2023-08-06T12:41:55;2.42;;;1.38;;
3249;SDS011;1637;42.020;23.992;2023-08-06T12:44:22;2.50;;;1.58;;
3249;SDS011;1637;42.020;23.992;2023-08-06T12:46:49;2.13;;;1.45;;
3249;SDS011;1637;42.020;23.992;2023-08-06T12:49:16;1.60;;;1.50;;
3249;SDS011;1637;42.020;23.992;2023-08-06T12:51:43;1.52;;;1.35;;
3249;SDS011;1637;42.020;23.992;2023-08-06T12:54:10;3.88;;;1.70;;
3249;SDS011;1637;42.020;23.992;2023-08-06T12:56:37;1.80;;;1.50;;
3249;SDS011;1637;42.020;23.992;2023-08-06T12:59:05;7.00;;;1.50;;
3249;SDS011;1637;42.020;23.992;2023-08-06T13:01:32;3.35;;;1.35;;
3249;SDS011;1637;42.020;23.992;2023-08-06T13:03:59;1.88;;;1.30;;
3249;SDS011;1637;42.020;23.992;2023-08-06T13:06:26;1.80;;;1.70;;
3249;SDS011;1637;42.020;23.992;2023-08-06T13:08:53;7.47;;;1.48;;
3249;SDS011;1637;42.020;23.992;2023-08-06T13:11:20;1.42;;;1.33;;
3249;SDS011;1637;42.020;23.992;2023-08-06T13:13:47;1.87;;;1.30;;
3249;SDS011;1637;42.020;23.992;2023-08-06T13:16:15;1.10;;;0.88;;
3249;SDS011;1637;42.020;23.992;2023-08-06T13:18:42;2.80;;;1.20;;
3249;SDS011;1637;42.020;23.992;2023-08-06T13:21:09;1.70;;;1.33;;
3249;SDS011;1637;42.020;23.992;2023-08-06T13:23:36;1.20;;;1.10;;
3249;SDS011;1637;42.020;23.992;2023-08-06T13:26:03;2.40;;;1.33;;
3249;SDS011;1637;42.020;23.992;2023-08-06T13:28:29;1.10;;;0.97;;
3249;SDS011;1637;42.020;23.992;2023-08-06T13:30:56;3.03;;;1.20;;
3249;SDS011;1637;42.020;23.992;2023-08-06T13:33:24;3.00;;;1.20;;
3249;SDS011;1637;42.020;23.992;2023-08-06T13:35:52;1.10;;;0.90;;
3249;SDS011;1637;42.020;23.992;2023-08-06T13:38:18;1.20;;;1.10;;
3249;SDS011;1637;42.020;23.992;2023-08-06T13:40:45;1.90;;;1.10;;
3249;SDS011;1637;42.020;23.992;2023-08-06T13:43:12;1.50;;;1.10;;
3249;SDS011;1637;42.020;23.992;2023-08-06T13:45:41;1.20;;;0.97;;
3249;SDS011;1637;42.020;23.992;2023-08-06T13:48:08;3.40;;;1.20;;
3249;SDS011;1637;42.020;23.992;2023-08-06T13:50:37;1.30;;;1.00;;
3249;SDS011;1637;42.020;23.992;2023-08-06T13:53:03;4.27;;;1.40;;
3249;SDS011;1637;42.020;23.992;2023-08-06T13:55:30;6.83;;;1.07;;
3249;SDS011;1637;42.020;23.992;2023-08-06T13:57:57;3.50;;;1.27;;
3249;SDS011;1637;42.020;23.992;2023-08-06T14:00:24;2.10;;;1.20;;
3249;SDS011;1637;42.020;23.992;2023-08-06T14:02:51;2.00;;;1.27;;
3249;SDS011;1637;42.020;23.992;2023-08-06T14:05:17;2.53;;;1.10;;
3249;SDS011;1637;42.020;23.992;2023-08-06T14:07:46;1.53;;;1.43;;
3249;SDS011;1637;42.020;23.992;2023-08-06T14:10:13;2.10;;;1.30;;
3249;SDS011;1637;42.020;23.992;2023-08-06T14:12:39;1.53;;;1.20;;
3249;SDS011;1637;42.020;23.992;2023-08-06T14:15:10;9.27;;;1.27;;
3249;SDS011;1637;42.020;23.992;2023-08-06T14:17:37;4.13;;;1.50;;
3249;SDS011;1637;42.020;23.992;2023-08-06T14:20:04;1.40;;;1.10;;
3249;SDS011;1637;42.020;23.992;2023-08-06T14:22:34;1.60;;;1.37;;
3249;SDS011;1637;42.020;23.992;2023-08-06T14:25:02;2.77;;;1.20;;
3249;SDS011;1637;42.020;23.992;2023-08-06T14:27:30;1.93;;;1.50;;
3249;SDS011;1637;42.020;23.992;2023-08-06T14:29:57;2.57;;;1.63;;
3249;SDS011;1637;42.020;23.992;2023-08-06T14:32:23;1.47;;;1.10;;
3249;SDS011;1637;42.020;23.992;2023-08-06T14:34:51;6.20;;;1.07;;
3249;SDS011;1637;42.020;23.992;2023-08-06T14:37:19;2.20;;;1.20;;
3249;SDS011;1637;42.020;23.992;2023-08-06T14:39:46;3.00;;;1.00;;
3249;SDS011;1637;42.020;23.992;2023-08-06T14:42:14;1.73;;;1.27;;
3249;SDS011;1637;42.020;23.992;2023-08-06T14:44:41;2.60;;;1.33;;
3249;SDS011;1637;42.020;23.992;2023-08-06T14:47:09;3.83;;;1.20;;
3249;SDS011;1637;42.020;23.992;2023-08-06T14:49:37;3.40;;;1.40;;
3249;SDS011;1637;42.020;23.992;2023-08-06T14:52:04;8.00;;;1.10;;
3249;SDS011;1637;42.020;23.992;2023-08-06T14:54:32;6.47;;;0.90;;
3249;SDS011;1637;42.020;23.992;2023-08-06T14:56:58;1.30;;;0.90;;
3249;SDS011;1637;42.020;23.992;2023-08-06T14:59:27;4.17;;;1.20;;